createdAt,value
2019-05-02T00:00:34.029Z,70.37
2019-05-02T00:01:33.984Z,70.18
2019-05-02T00:02:33.954Z,70.27
2019-05-02T00:03:35.893Z,70.43
2019-05-02T00:04:33.876Z,69.60
2019-05-02T00:05:33.847Z,69.76
2019-05-02T00:06:38.124Z,69.76
2019-05-02T00:07:33.814Z,69.51
2019-05-02T00:08:34.386Z,69.85
2019-05-02T00:09:33.699Z,69.76
2019-05-02T00:10:33.658Z,69.76
2019-05-02T00:11:33.630Z,69.85
2019-05-02T00:12:33.608Z,69.57
2019-05-02T00:13:33.573Z,69.48
2019-05-02T00:14:33.587Z,69.38
2019-05-02T00:15:38.296Z,69.00
2019-05-02T00:16:33.465Z,69.19
2019-05-02T00:17:33.448Z,69.10
2019-05-02T00:18:37.319Z,68.43
2019-05-02T00:19:33.359Z,68.71
2019-05-02T00:20:33.362Z,68.71
2019-05-02T00:21:38.264Z,68.62
2019-05-02T00:22:33.258Z,69.29
2019-05-02T00:23:33.215Z,69.19
2019-05-02T00:24:33.968Z,69.48
2019-05-02T00:25:33.150Z,69.19
2019-05-02T00:26:33.133Z,69.19
2019-05-02T00:27:37.775Z,69.00
2019-05-02T00:28:33.044Z,69.38
2019-05-02T00:29:32.999Z,69.38
2019-05-02T00:30:34.645Z,69.38
2019-05-02T00:31:32.945Z,68.90
2019-05-02T00:32:32.916Z,68.90
2019-05-02T00:33:34.326Z,69.19
2019-05-02T00:34:32.838Z,69.76
2019-05-02T00:35:32.794Z,69.76
2019-05-02T00:36:32.760Z,69.95
2019-05-02T00:37:32.725Z,69.48
2019-05-02T00:38:33.272Z,69.44
2019-05-02T00:39:32.650Z,69.06
2019-05-02T00:40:32.619Z,69.15
2019-05-02T00:41:33.179Z,69.15
2019-05-02T00:42:32.597Z,69.06
2019-05-02T00:43:34.409Z,69.54
2019-05-02T00:44:32.493Z,69.54
2019-05-02T00:45:32.460Z,69.06
2019-05-02T00:46:35.031Z,68.87
2019-05-02T00:47:32.379Z,69.15
2019-05-02T00:48:32.355Z,69.44
2019-05-02T00:49:35.564Z,69.06
2019-05-02T00:50:32.271Z,68.77
2019-05-02T00:51:32.236Z,68.96
2019-05-02T00:52:32.850Z,68.96
2019-05-02T00:53:32.179Z,68.68
2019-05-02T00:54:32.135Z,68.96
2019-05-02T00:55:33.801Z,68.49
2019-05-02T00:56:32.079Z,68.49
2019-05-02T00:57:32.024Z,68.87
2019-05-02T00:58:33.097Z,68.59
2019-05-02T00:59:31.994Z,68.68
2019-05-02T01:00:31.971Z,68.59
2019-05-02T01:01:31.901Z,68.49
2019-05-02T01:02:35.789Z,68.68
2019-05-02T01:03:32.143Z,68.11
2019-05-02T01:04:31.776Z,68.40
2019-05-02T01:05:33.763Z,68.59
2019-05-02T01:06:31.711Z,68.77
2019-05-02T01:07:31.725Z,68.30
2019-05-02T01:08:35.710Z,68.40
2019-05-02T01:09:31.612Z,68.01
2019-05-02T01:10:31.567Z,68.40
2019-05-02T01:11:32.217Z,67.73
2019-05-02T01:12:31.498Z,67.73
2019-05-02T01:13:31.475Z,67.54
2019-05-02T01:14:32.060Z,66.78
2019-05-02T01:15:31.391Z,66.49
2019-05-02T01:16:31.358Z,66.68
2019-05-02T01:17:32.278Z,66.68
2019-05-02T01:18:31.326Z,66.49
2019-05-02T01:19:31.258Z,67.35
2019-05-02T01:20:31.217Z,67.54
2019-05-02T01:21:34.036Z,67.44
2019-05-02T01:22:31.167Z,67.63
2019-05-02T01:23:31.117Z,67.82
2019-05-02T01:24:34.199Z,67.73
2019-05-02T01:25:31.041Z,67.73
2019-05-02T01:26:31.032Z,67.92
2019-05-02T01:27:30.994Z,67.44
2019-05-02T01:28:30.929Z,67.82
2019-05-02T01:29:31.757Z,68.30
2019-05-02T01:30:30.892Z,67.63
2019-05-02T01:31:30.829Z,68.01
2019-05-02T01:32:31.342Z,68.07
2019-05-02T01:33:30.762Z,68.30
2019-05-02T01:34:30.720Z,68.40
2019-05-02T01:35:31.615Z,68.59
2019-05-02T01:36:30.690Z,68.36
2019-05-02T01:37:30.662Z,68.59
2019-05-02T01:38:32.012Z,68.27
2019-05-02T01:39:30.574Z,68.07
2019-05-02T01:40:30.524Z,68.27
2019-05-02T01:41:31.104Z,68.84
2019-05-02T01:42:39.708Z,68.65
2019-05-02T01:43:30.407Z,68.65
2019-05-02T01:44:31.182Z,68.27
2019-05-02T01:45:30.374Z,68.36
2019-05-02T01:46:30.308Z,68.36
2019-05-02T01:47:34.253Z,68.27
2019-05-02T01:48:30.226Z,68.46
2019-05-02T01:49:30.220Z,68.55
2019-05-02T01:50:33.549Z,67.88
2019-05-02T01:51:30.133Z,68.36
2019-05-02T01:52:30.113Z,68.36
2019-05-02T01:53:34.205Z,68.46
2019-05-02T01:54:30.038Z,67.88
2019-05-02T01:55:30.013Z,67.98
2019-05-02T01:56:33.065Z,67.79
2019-05-02T01:57:29.944Z,67.69
2019-05-02T01:58:29.861Z,67.50
2019-05-02T01:59:33.841Z,67.60
2019-05-02T02:00:29.799Z,67.69
2019-05-02T02:01:29.776Z,67.41
2019-05-02T02:02:32.890Z,67.60
2019-05-02T02:03:29.728Z,67.69
2019-05-02T02:04:29.663Z,67.88
2019-05-02T02:05:32.257Z,67.88
2019-05-02T02:06:29.584Z,67.79
2019-05-02T02:07:29.554Z,67.79
2019-05-02T02:08:32.643Z,67.60
2019-05-02T02:09:29.486Z,66.55
2019-05-02T02:10:29.451Z,67.32
2019-05-02T02:11:33.967Z,66.94
2019-05-02T02:12:29.374Z,66.65
2019-05-02T02:13:31.364Z,66.74
2019-05-02T02:14:29.305Z,66.84
2019-05-02T02:15:30.282Z,67.03
2019-05-02T02:16:29.249Z,66.74
2019-05-02T02:17:29.201Z,67.13
2019-05-02T02:18:29.430Z,67.41
2019-05-02T02:19:29.155Z,66.55
2019-05-02T02:20:29.090Z,66.94
2019-05-02T02:21:29.061Z,66.08
2019-05-02T02:22:29.061Z,66.36
2019-05-02T02:23:29.010Z,66.46
2019-05-02T02:24:28.956Z,65.99
2019-05-02T02:25:32.334Z,66.17
2019-05-02T02:26:28.882Z,66.46
2019-05-02T02:27:28.837Z,66.46
2019-05-02T02:28:32.015Z,66.46
2019-05-02T02:29:28.767Z,65.99
2019-05-02T02:30:28.772Z,65.99
2019-05-02T02:31:28.713Z,66.36
2019-05-02T02:32:28.761Z,66.08
2019-05-02T02:33:28.638Z,65.99
2019-05-02T02:34:30.252Z,65.70
2019-05-02T02:35:28.607Z,65.80
2019-05-02T02:36:34.441Z,66.08
2019-05-02T02:37:28.479Z,65.89
2019-05-02T02:38:33.537Z,65.41
2019-05-02T02:39:28.422Z,65.41
2019-05-02T02:40:33.565Z,65.41
2019-05-02T02:41:28.336Z,65.13
2019-05-02T02:42:31.639Z,65.60
2019-05-02T02:43:34.406Z,65.03
2019-05-02T02:44:33.813Z,65.03
2019-05-02T02:45:28.197Z,65.03
2019-05-02T02:46:30.865Z,64.84
2019-05-02T02:47:28.160Z,64.46
2019-05-02T02:48:33.594Z,64.65
2019-05-02T02:49:28.058Z,64.75
2019-05-02T02:50:28.019Z,64.56
2019-05-02T02:51:28.023Z,64.65
2019-05-02T02:52:27.947Z,64.18
2019-05-02T02:53:27.919Z,63.89
2019-05-02T02:54:27.918Z,64.18
2019-05-02T02:55:27.843Z,63.99
2019-05-02T02:56:27.842Z,64.46
2019-05-02T02:57:28.509Z,64.08
2019-05-02T02:58:27.744Z,63.89
2019-05-02T02:59:28.305Z,63.79
2019-05-02T03:00:27.669Z,63.13
2019-05-02T03:01:29.274Z,63.23
2019-05-02T03:02:27.620Z,63.32
2019-05-02T03:03:29.994Z,63.51
2019-05-02T03:04:27.543Z,63.04
2019-05-02T03:05:27.828Z,62.85
2019-05-02T03:06:27.469Z,62.94
2019-05-02T03:07:28.943Z,62.46
2019-05-02T03:08:27.398Z,62.94
2019-05-02T03:09:29.050Z,62.56
2019-05-02T03:10:27.307Z,62.94
2019-05-02T03:11:27.295Z,63.13
2019-05-02T03:12:27.234Z,62.94
2019-05-02T03:13:27.205Z,62.94
2019-05-02T03:14:27.164Z,63.23
2019-05-02T03:15:28.012Z,62.46
2019-05-02T03:16:27.109Z,62.08
2019-05-02T03:17:28.823Z,61.61
2019-05-02T03:18:27.290Z,61.99
2019-05-02T03:19:26.983Z,61.99
2019-05-02T03:20:26.960Z,61.93
2019-05-02T03:21:26.929Z,61.83
2019-05-02T03:22:26.892Z,62.21
2019-05-02T03:23:26.865Z,61.93
2019-05-02T03:24:26.838Z,61.93
2019-05-02T03:25:49.320Z,61.93
2019-05-02T03:26:26.738Z,61.45
2019-05-02T03:27:29.750Z,61.74
2019-05-02T03:28:26.682Z,62.02
2019-05-02T03:29:39.220Z,61.83
2019-05-02T03:30:36.003Z,62.02
2019-05-02T03:31:30.615Z,61.93
2019-05-02T03:32:34.208Z,62.02
2019-05-02T03:33:26.510Z,62.12
2019-05-02T03:34:45.256Z,61.26
2019-05-02T03:35:42.974Z,61.64
2019-05-02T03:36:34.530Z,61.55
2019-05-02T03:37:26.366Z,61.83
2019-05-02T03:38:32.637Z,61.93
2019-05-02T03:39:26.275Z,61.83
2019-05-02T03:40:32.148Z,61.93
2019-05-02T03:41:26.220Z,62.59
2019-05-02T03:42:26.205Z,62.02
2019-05-02T03:43:27.816Z,61.93
2019-05-02T03:44:26.614Z,62.02
2019-05-02T03:45:32.353Z,62.02
2019-05-02T03:46:26.042Z,62.12
2019-05-02T03:47:26.024Z,62.02
2019-05-02T03:48:27.887Z,62.40
2019-05-02T03:49:25.941Z,62.21
2019-05-02T03:50:32.907Z,61.74
2019-05-02T03:51:25.860Z,62.21
2019-05-02T03:52:25.816Z,62.30
2019-05-02T03:53:27.736Z,62.02
2019-05-02T03:54:25.753Z,62.59
2019-05-02T03:55:31.456Z,63.07
2019-05-02T03:56:25.722Z,62.49
2019-05-02T03:57:33.198Z,62.69
2019-05-02T03:58:25.653Z,62.12
2019-05-02T03:59:37.633Z,62.40
2019-05-02T04:00:25.578Z,62.15
2019-05-02T04:01:25.541Z,61.96
2019-05-02T04:02:25.519Z,62.34
2019-05-02T04:03:25.473Z,62.24
2019-05-02T04:04:25.429Z,62.43
2019-05-02T04:05:25.372Z,62.34
2019-05-02T04:06:25.338Z,62.43
2019-05-02T04:07:25.352Z,62.21
2019-05-02T04:08:25.287Z,62.02
2019-05-02T04:09:25.240Z,62.05
2019-05-02T04:10:25.186Z,61.48
2019-05-02T04:11:25.174Z,61.86
2019-05-02T04:12:25.146Z,61.86
2019-05-02T04:13:30.016Z,61.96
2019-05-02T04:14:37.185Z,62.05
2019-05-02T04:15:28.649Z,61.96
2019-05-02T04:16:24.981Z,62.05
2019-05-02T04:17:28.625Z,61.86
2019-05-02T04:18:24.937Z,62.34
2019-05-02T04:19:28.755Z,62.34
2019-05-02T04:20:24.847Z,62.15
2019-05-02T04:21:26.520Z,61.58
2019-05-02T04:22:24.790Z,61.67
2019-05-02T04:23:27.670Z,61.67
2019-05-02T04:24:24.703Z,61.48
2019-05-02T04:25:27.912Z,61.77
2019-05-02T04:26:24.662Z,61.67
2019-05-02T04:27:27.689Z,61.10
2019-05-02T04:28:24.569Z,60.91
2019-05-02T04:29:31.005Z,60.91
2019-05-02T04:30:24.503Z,61.67
2019-05-02T04:31:30.985Z,61.10
2019-05-02T04:32:24.420Z,61.10
2019-05-02T04:33:29.040Z,61.58
2019-05-02T04:34:24.369Z,60.91
2019-05-02T04:35:28.682Z,61.00
2019-05-02T04:36:24.286Z,61.29
2019-05-02T04:37:24.273Z,60.91
2019-05-02T04:38:41.797Z,60.72
2019-05-02T04:39:24.175Z,60.91
2019-05-02T04:40:24.153Z,61.29
2019-05-02T04:41:28.738Z,60.63
2019-05-02T04:42:24.075Z,60.15
2019-05-02T04:43:24.072Z,60.05
2019-05-02T04:44:32.280Z,60.24
2019-05-02T04:45:29.388Z,59.64
2019-05-02T04:46:28.079Z,59.55
2019-05-02T04:47:23.923Z,59.39
2019-05-02T04:48:23.861Z,59.67
2019-05-02T04:49:29.716Z,59.86
2019-05-02T04:50:25.135Z,59.86
2019-05-02T04:51:27.502Z,59.86
2019-05-02T04:52:23.734Z,59.77
2019-05-02T04:53:26.015Z,60.05
2019-05-02T04:54:29.071Z,60.91
2019-05-02T04:55:30.289Z,60.91
2019-05-02T04:56:23.582Z,61.19
2019-05-02T04:57:29.219Z,60.53
2019-05-02T04:58:27.619Z,60.15
2019-05-02T04:59:23.505Z,60.05
2019-05-02T05:00:23.461Z,60.15
2019-05-02T05:01:23.418Z,59.96
2019-05-02T05:02:34.737Z,59.96
2019-05-02T05:03:23.343Z,60.53
2019-05-02T05:04:23.333Z,60.24
2019-05-02T05:05:25.813Z,61.19
2019-05-02T05:06:23.251Z,60.34
2019-05-02T05:07:23.190Z,59.96
2019-05-02T05:08:26.489Z,60.15
2019-05-02T05:09:23.166Z,60.05
2019-05-02T05:10:23.101Z,61.19
2019-05-02T05:11:24.968Z,60.72
2019-05-02T05:12:23.027Z,61.29
2019-05-02T05:13:26.133Z,60.91
2019-05-02T05:14:22.977Z,60.91
2019-05-02T05:15:37.194Z,61.19
2019-05-02T05:16:22.888Z,61.67
2019-05-02T05:17:25.173Z,61.00
2019-05-02T05:18:22.815Z,61.13
2019-05-02T05:19:23.086Z,61.38
2019-05-02T05:20:22.740Z,61.22
2019-05-02T05:21:24.687Z,61.13
2019-05-02T05:22:22.718Z,61.32
2019-05-02T05:23:22.655Z,61.04
2019-05-02T05:24:24.965Z,61.13
2019-05-02T05:25:22.584Z,61.22
2019-05-02T05:26:22.557Z,61.10
2019-05-02T05:27:22.919Z,61.13
2019-05-02T05:28:22.478Z,60.94
2019-05-02T05:29:23.330Z,60.46
2019-05-02T05:30:22.403Z,61.38
2019-05-02T05:31:24.207Z,61.19
2019-05-02T05:32:22.338Z,60.15
2019-05-02T05:33:22.298Z,60.53
2019-05-02T05:34:22.873Z,60.37
2019-05-02T05:35:22.256Z,60.08
2019-05-02T05:36:29.249Z,59.89
2019-05-02T05:37:22.199Z,59.51
2019-05-02T05:38:23.001Z,60.46
2019-05-02T05:39:22.095Z,60.75
2019-05-02T05:40:22.520Z,60.66
2019-05-02T05:41:23.252Z,61.04
2019-05-02T05:42:23.314Z,61.42
2019-05-02T05:43:21.947Z,62.08
2019-05-02T05:44:23.209Z,60.85
2019-05-02T05:45:21.892Z,60.46
2019-05-02T05:46:21.842Z,60.94
2019-05-02T05:47:21.844Z,61.70
2019-05-02T05:48:21.794Z,61.80
2019-05-02T05:49:21.916Z,61.90
2019-05-02T05:50:21.707Z,61.70
2019-05-02T05:51:21.673Z,61.04
2019-05-02T05:52:21.674Z,61.99
2019-05-02T05:53:24.461Z,61.51
2019-05-02T05:54:21.577Z,61.80
2019-05-02T05:55:24.363Z,61.51
2019-05-02T05:56:21.503Z,61.61
2019-05-02T05:57:21.470Z,61.70
2019-05-02T05:58:21.460Z,61.90
2019-05-02T05:59:22.266Z,61.80
2019-05-02T06:00:23.155Z,62.27
2019-05-02T06:01:25.960Z,61.22
2019-05-02T06:02:21.321Z,62.08
2019-05-02T06:03:21.265Z,60.75
2019-05-02T06:04:23.655Z,61.70
2019-05-02T06:05:21.200Z,61.13
2019-05-02T06:06:23.192Z,61.70
2019-05-02T06:07:21.155Z,62.08
2019-05-02T06:08:21.103Z,61.90
2019-05-02T06:09:21.049Z,62.08
2019-05-02T06:10:21.053Z,62.27
2019-05-02T06:11:21.809Z,61.80
2019-05-02T06:12:20.972Z,61.90
2019-05-02T06:13:20.953Z,61.80
2019-05-02T06:14:24.940Z,61.90
2019-05-02T06:15:20.851Z,62.46
2019-05-02T06:16:20.820Z,61.70
2019-05-02T06:17:23.141Z,62.85
2019-05-02T06:18:20.749Z,62.37
2019-05-02T06:19:20.715Z,61.99
2019-05-02T06:20:20.701Z,64.75
2019-05-02T06:21:20.648Z,64.84
2019-05-02T06:22:24.361Z,63.45
2019-05-02T06:23:20.580Z,63.17
2019-05-02T06:24:20.549Z,65.26
2019-05-02T06:25:32.706Z,64.21
2019-05-02T06:26:20.475Z,64.65
2019-05-02T06:27:20.949Z,64.28
2019-05-02T06:28:20.409Z,64.56
2019-05-02T06:29:20.945Z,64.31
2019-05-02T06:30:20.347Z,64.59
2019-05-02T06:31:20.300Z,66.56
2019-05-02T06:32:20.728Z,66.31
2019-05-02T06:33:20.274Z,66.78
2019-05-02T06:34:20.211Z,66.59
2019-05-02T06:35:21.197Z,67.64
2019-05-02T06:36:20.124Z,66.97
2019-05-02T06:37:20.101Z,66.88
2019-05-02T06:38:21.549Z,68.21
2019-05-02T06:39:20.032Z,69.26
2019-05-02T06:40:20.011Z,69.07
2019-05-02T06:41:21.044Z,70.59
2019-05-02T06:42:19.931Z,69.17
2019-05-02T06:43:19.894Z,71.17
2019-05-02T06:44:24.169Z,70.78
2019-05-02T06:45:19.834Z,69.17
2019-05-02T06:46:21.709Z,69.83
2019-05-02T06:47:19.755Z,70.31
2019-05-02T06:48:19.736Z,69.64
2019-05-02T06:49:24.162Z,72.50
2019-05-02T06:50:19.657Z,70.34
2019-05-02T06:51:21.050Z,72.41
2019-05-02T06:52:19.599Z,72.88
2019-05-02T06:53:19.580Z,72.88
2019-05-02T06:54:22.843Z,72.21
2019-05-02T06:55:19.517Z,72.41
2019-05-02T06:56:19.463Z,71.36
2019-05-02T06:57:24.102Z,72.88
2019-05-02T06:58:19.387Z,71.64
2019-05-02T06:59:20.322Z,70.88
2019-05-02T07:00:19.316Z,73.30
2019-05-02T07:01:21.405Z,72.02
2019-05-02T07:02:19.285Z,70.82
2019-05-02T07:03:19.240Z,73.87
2019-05-02T07:04:22.969Z,72.92
2019-05-02T07:05:19.146Z,72.34
2019-05-02T07:06:19.401Z,72.53
2019-05-02T07:07:19.136Z,72.16
2019-05-02T07:08:19.251Z,71.48
2019-05-02T07:09:19.073Z,74.44
2019-05-02T07:10:20.118Z,74.21
2019-05-02T07:11:18.973Z,73.87
2019-05-02T07:12:18.926Z,72.53
2019-05-02T07:13:18.879Z,72.34
2019-05-02T07:14:23.661Z,74.16
2019-05-02T07:15:18.830Z,73.68
2019-05-02T07:16:37.249Z,72.63
2019-05-02T07:17:18.742Z,72.44
2019-05-02T07:18:18.703Z,72.44
2019-05-02T07:19:21.646Z,73.11
2019-05-02T07:20:18.637Z,72.53
2019-05-02T07:21:23.234Z,73.21
2019-05-02T07:22:18.572Z,72.63
2019-05-02T07:23:18.553Z,72.72
2019-05-02T07:24:18.500Z,73.11
2019-05-02T07:25:18.493Z,72.25
2019-05-02T07:26:21.063Z,73.30
2019-05-02T07:27:18.411Z,72.25
2019-05-02T07:28:18.370Z,72.06
2019-05-02T07:29:21.815Z,73.11
2019-05-02T07:30:18.303Z,72.72
2019-05-02T07:31:18.274Z,72.44
2019-05-02T07:32:19.171Z,72.44
2019-05-02T07:33:18.209Z,72.96
2019-05-02T07:34:18.195Z,72.53
2019-05-02T07:35:19.178Z,73.39
2019-05-02T07:36:18.109Z,73.21
2019-05-02T07:37:18.074Z,72.25
2019-05-02T07:38:20.252Z,73.24
2019-05-02T07:39:18.013Z,72.48
2019-05-02T07:40:18.861Z,73.72
2019-05-02T07:41:17.938Z,73.24
2019-05-02T07:42:17.904Z,73.72
2019-05-02T07:43:21.431Z,73.62
2019-05-02T07:44:17.839Z,73.72
2019-05-02T07:45:17.796Z,73.33
2019-05-02T07:46:21.002Z,73.14
2019-05-02T07:47:17.738Z,73.14
2019-05-02T07:48:19.019Z,73.81
2019-05-02T07:49:20.637Z,71.72
2019-05-02T07:50:17.641Z,72.48
2019-05-02T07:51:21.421Z,72.96
2019-05-02T07:52:17.570Z,71.77
2019-05-02T07:53:17.540Z,71.48
2019-05-02T07:54:19.285Z,72.53
2019-05-02T07:55:17.471Z,73.05
2019-05-02T07:56:18.717Z,72.96
2019-05-02T07:57:17.399Z,72.48
2019-05-02T07:58:17.368Z,74.19
2019-05-02T07:59:18.684Z,73.43
2019-05-02T08:00:17.330Z,73.05
2019-05-02T08:01:17.261Z,72.28
2019-05-02T08:02:20.230Z,72.09
2019-05-02T08:03:17.211Z,73.05
2019-05-02T08:04:17.160Z,72.28
2019-05-02T08:05:21.835Z,73.05
2019-05-02T08:06:17.114Z,72.67
2019-05-02T08:07:21.110Z,71.72
2019-05-02T08:08:17.061Z,72.86
2019-05-02T08:09:16.996Z,72.28
2019-05-02T08:10:22.182Z,72.28
2019-05-02T08:11:16.941Z,73.66
2019-05-02T08:12:16.910Z,73.94
2019-05-02T08:13:17.581Z,73.94
2019-05-02T08:14:16.846Z,73.75
2019-05-02T08:15:16.800Z,74.42
2019-05-02T08:16:16.777Z,74.04
2019-05-02T08:17:19.004Z,74.71
2019-05-02T08:18:16.711Z,73.85
2019-05-02T08:19:16.697Z,75.28
2019-05-02T08:20:19.063Z,75.85
2019-05-02T08:21:16.602Z,75.76
2019-05-02T08:22:16.577Z,75.09
2019-05-02T08:23:20.580Z,77.09
2019-05-02T08:24:16.512Z,75.89
2019-05-02T08:25:16.484Z,75.79
2019-05-02T08:26:21.482Z,74.99
2019-05-02T08:27:16.419Z,75.09
2019-05-02T08:28:17.853Z,74.80
2019-05-02T08:29:16.344Z,74.71
2019-05-02T08:30:16.313Z,74.99
2019-05-02T08:31:19.017Z,75.79
2019-05-02T08:32:16.248Z,76.18
2019-05-02T08:33:16.221Z,76.27
2019-05-02T08:34:16.300Z,74.84
2019-05-02T08:35:16.152Z,75.22
2019-05-02T08:36:16.109Z,74.84
2019-05-02T08:37:16.078Z,75.79
2019-05-02T08:38:17.786Z,75.13
2019-05-02T08:39:16.023Z,75.60
2019-05-02T08:40:15.986Z,74.93
2019-05-02T08:41:19.924Z,75.32
2019-05-02T08:42:15.916Z,75.51
2019-05-02T08:43:15.897Z,75.42
2019-05-02T08:44:16.986Z,76.46
2019-05-02T08:45:15.823Z,74.46
2019-05-02T08:46:16.051Z,75.03
2019-05-02T08:47:18.958Z,75.60
2019-05-02T08:48:15.732Z,73.25
2019-05-02T08:49:18.765Z,77.74
2019-05-02T08:50:15.668Z,76.56
2019-05-02T08:51:15.657Z,77.08
2019-05-02T08:52:15.592Z,77.74
2019-05-02T08:53:19.703Z,77.55
2019-05-02T08:54:15.523Z,76.60
2019-05-02T08:55:15.499Z,76.88
2019-05-02T08:56:16.013Z,77.84
2019-05-02T08:57:15.467Z,77.74
2019-05-02T08:58:15.902Z,75.22
2019-05-02T08:59:15.382Z,75.51
2019-05-02T09:00:15.356Z,76.12
2019-05-02T09:01:15.539Z,75.74
2019-05-02T09:02:15.278Z,75.26
2019-05-02T09:03:15.244Z,75.16
2019-05-02T09:04:15.213Z,75.64
2019-05-02T09:05:15.188Z,76.69
2019-05-02T09:06:17.187Z,75.35
2019-05-02T09:07:15.236Z,77.45
2019-05-02T09:08:16.587Z,76.79
2019-05-02T09:09:15.055Z,76.12
2019-05-02T09:10:15.052Z,74.78
2019-05-02T09:11:15.872Z,77.84
2019-05-02T09:12:15.286Z,76.69
2019-05-02T09:13:17.940Z,76.40
2019-05-02T09:14:14.899Z,76.69
2019-05-02T09:15:14.853Z,77.36
2019-05-02T09:16:14.822Z,78.03
2019-05-02T09:17:16.612Z,77.55
2019-05-02T09:18:14.762Z,76.40
2019-05-02T09:19:21.575Z,75.93
2019-05-02T09:20:16.601Z,78.13
2019-05-02T09:21:14.672Z,77.36
2019-05-02T09:22:16.763Z,78.89
2019-05-02T09:23:14.627Z,77.17
2019-05-02T09:24:20.963Z,77.17
2019-05-02T09:25:14.536Z,77.65
2019-05-02T09:26:14.505Z,76.64
2019-05-02T09:27:14.472Z,76.60
2019-05-02T09:28:17.116Z,78.70
2019-05-02T09:29:14.424Z,76.45
2019-05-02T09:30:17.255Z,77.50
2019-05-02T09:31:14.345Z,77.55
2019-05-02T09:32:17.225Z,79.17
2019-05-02T09:33:14.290Z,77.36
2019-05-02T09:34:17.058Z,76.50
2019-05-02T09:35:14.216Z,78.79
2019-05-02T09:36:14.187Z,76.50
2019-05-02T09:37:14.165Z,78.45
2019-05-02T09:38:16.325Z,77.50
2019-05-02T09:39:14.090Z,75.78
2019-05-02T09:40:16.630Z,77.59
2019-05-02T09:41:19.068Z,78.16
2019-05-02T09:42:16.373Z,78.83
2019-05-02T09:43:13.963Z,78.64
2019-05-02T09:44:18.599Z,77.44
2019-05-02T09:45:16.005Z,76.20
2019-05-02T09:46:16.573Z,79.35
2019-05-02T09:47:13.843Z,79.16
2019-05-02T09:48:17.164Z,78.97
2019-05-02T09:49:16.354Z,79.83
2019-05-02T09:50:13.748Z,78.39
2019-05-02T09:51:17.461Z,77.63
2019-05-02T09:52:13.697Z,79.16
2019-05-02T09:53:20.510Z,79.10
2019-05-02T09:54:13.628Z,78.05
2019-05-02T09:55:13.585Z,80.25
2019-05-02T09:56:13.594Z,78.63
2019-05-02T09:57:13.541Z,79.29
2019-05-02T09:58:19.014Z,79.77
2019-05-02T09:59:26.734Z,78.72
2019-05-02T10:00:13.433Z,79.52
2019-05-02T10:01:13.413Z,79.72
2019-05-02T10:02:13.386Z,79.52
2019-05-02T10:03:13.406Z,79.18
2019-05-02T10:04:13.323Z,78.51
2019-05-02T10:05:13.334Z,77.65
2019-05-02T10:06:18.034Z,77.84
2019-05-02T10:07:15.318Z,76.79
2019-05-02T10:08:13.858Z,76.50
2019-05-02T10:09:13.171Z,73.91
2019-05-02T10:10:13.146Z,71.08
2019-05-02T10:11:16.864Z,72.13
2019-05-02T10:12:13.098Z,72.52
2019-05-02T10:13:13.058Z,75.20
2019-05-02T10:14:13.042Z,72.27
2019-05-02T10:15:13.049Z,73.32
2019-05-02T10:16:12.975Z,70.15
2019-05-02T10:17:12.961Z,66.55
2019-05-02T10:18:14.563Z,66.83
2019-05-02T10:19:13.517Z,67.12
2019-05-02T10:20:12.863Z,66.83
2019-05-02T10:21:17.062Z,69.56
2019-05-02T10:22:12.788Z,65.62
2019-05-02T10:23:19.664Z,65.52
2019-05-02T10:24:12.757Z,64.95
2019-05-02T10:25:12.724Z,65.33
2019-05-02T10:26:19.806Z,65.33
2019-05-02T10:27:12.679Z,66.19
2019-05-02T10:28:13.042Z,65.43
2019-05-02T10:29:12.829Z,64.09
2019-05-02T10:30:15.705Z,65.01
2019-05-02T10:31:12.727Z,66.55
2019-05-02T10:32:16.469Z,64.47
2019-05-02T10:33:12.476Z,64.28
2019-05-02T10:34:16.337Z,63.22
2019-05-02T10:35:12.935Z,61.59
2019-05-02T10:36:19.776Z,61.11
2019-05-02T10:37:12.413Z,62.93
2019-05-02T10:38:17.982Z,62.55
2019-05-02T10:39:15.686Z,61.78
2019-05-02T10:40:15.472Z,61.98
2019-05-02T10:41:12.274Z,60.35
2019-05-02T10:42:12.564Z,59.26
2019-05-02T10:43:12.199Z,61.21
2019-05-02T10:44:12.834Z,59.93
2019-05-02T10:45:16.331Z,60.03
2019-05-02T10:46:12.604Z,61.88
2019-05-02T10:47:12.841Z,62.74
2019-05-02T10:48:24.839Z,61.24
2019-05-02T10:49:12.496Z,59.80
2019-05-02T10:50:12.010Z,59.03
2019-05-02T10:51:11.977Z,59.16
2019-05-02T10:52:12.284Z,58.07
2019-05-02T10:53:15.623Z,58.84
2019-05-02T10:54:12.078Z,58.45
2019-05-02T10:55:12.883Z,58.04
2019-05-02T10:56:11.869Z,58.91
2019-05-02T10:57:12.604Z,58.42
2019-05-02T10:58:12.444Z,58.62
2019-05-02T10:59:11.910Z,58.33
2019-05-02T11:00:12.061Z,58.42
2019-05-02T11:01:12.717Z,58.11
2019-05-02T11:02:12.873Z,59.48
2019-05-02T11:03:12.105Z,59.29
2019-05-02T11:04:12.882Z,59.48
2019-05-02T11:05:12.032Z,59.48
2019-05-02T11:06:12.536Z,59.67
2019-05-02T11:07:11.958Z,58.14
2019-05-02T11:08:12.047Z,57.85
2019-05-02T11:09:12.032Z,58.74
2019-05-02T11:10:12.265Z,56.44
2019-05-02T11:11:12.666Z,56.63
2019-05-02T11:12:11.887Z,57.21
2019-05-02T11:13:12.476Z,57.97
2019-05-02T11:14:11.983Z,57.43
2019-05-02T11:15:12.698Z,55.89
2019-05-02T11:16:12.474Z,55.79
2019-05-02T11:17:13.828Z,54.77
2019-05-02T11:18:12.666Z,52.84
2019-05-02T11:19:13.027Z,53.68
2019-05-02T11:20:12.276Z,53.49
2019-05-02T11:21:12.194Z,53.39
2019-05-02T11:22:12.104Z,53.11
2019-05-02T11:23:12.728Z,53.39
2019-05-02T11:24:13.675Z,53.58
2019-05-02T11:25:12.090Z,54.09
2019-05-02T11:26:14.500Z,55.34
2019-05-02T11:27:12.687Z,53.32
2019-05-02T11:28:12.425Z,53.54
2019-05-02T11:29:12.115Z,53.64
2019-05-02T11:30:12.136Z,52.42
2019-05-02T11:31:12.416Z,52.70
2019-05-02T11:32:12.663Z,51.74
2019-05-02T11:33:13.398Z,52.70
2019-05-02T11:34:12.351Z,53.57
2019-05-02T11:35:12.204Z,52.70
2019-05-02T11:36:10.737Z,52.12
2019-05-02T11:37:12.150Z,53.21
2019-05-02T11:38:13.273Z,52.92
2019-05-02T11:39:18.867Z,52.73
2019-05-02T11:40:12.654Z,50.87
2019-05-02T11:41:11.944Z,50.18
2019-05-02T11:42:12.380Z,51.04
2019-05-02T11:43:11.586Z,51.81
2019-05-02T11:44:12.180Z,50.82
2019-05-02T11:45:12.075Z,52.26
2019-05-02T11:46:12.102Z,52.00
2019-05-02T11:47:12.475Z,51.53
2019-05-02T11:48:11.939Z,50.82
2019-05-02T11:49:12.202Z,51.79
2019-05-02T11:50:11.894Z,51.69
2019-05-02T11:51:12.762Z,51.91
2019-05-02T11:52:11.858Z,49.87
2019-05-02T11:53:24.841Z,50.15
2019-05-02T11:54:10.247Z,50.56
2019-05-02T11:55:10.232Z,48.93
2019-05-02T11:56:11.654Z,49.10
2019-05-02T11:57:11.683Z,48.52
2019-05-02T11:58:10.686Z,49.84
2019-05-02T11:59:14.210Z,51.02
2019-05-02T12:00:11.939Z,50.15
2019-05-02T12:01:10.138Z,49.67
2019-05-02T12:02:17.387Z,49.48
2019-05-02T12:03:10.008Z,49.38
2019-05-02T12:04:12.970Z,49.38
2019-05-02T12:05:09.949Z,49.10
2019-05-02T12:06:12.726Z,48.23
2019-05-02T12:07:09.895Z,50.18
2019-05-02T12:08:12.198Z,49.41
2019-05-02T12:09:09.845Z,48.45
2019-05-02T12:10:09.821Z,48.57
2019-05-02T12:11:16.441Z,48.07
2019-05-02T12:12:09.758Z,49.31
2019-05-02T12:13:11.898Z,49.41
2019-05-02T12:14:09.709Z,49.48
2019-05-02T12:15:09.679Z,50.34
2019-05-02T12:16:09.644Z,50.56
2019-05-02T12:17:09.638Z,49.89
2019-05-02T12:18:09.588Z,50.27
2019-05-02T12:19:14.393Z,49.69
2019-05-02T12:20:09.543Z,49.22
2019-05-02T12:21:09.518Z,49.12
2019-05-02T12:22:12.834Z,49.60
2019-05-02T12:23:09.467Z,48.13
2019-05-02T12:24:09.422Z,48.61
2019-05-02T12:25:09.400Z,48.04
2019-05-02T12:26:09.419Z,49.12
2019-05-02T12:27:09.372Z,48.16
2019-05-02T12:28:09.324Z,48.07
2019-05-02T12:29:09.337Z,48.71
2019-05-02T12:30:09.266Z,49.38
2019-05-02T12:31:13.212Z,50.44
2019-05-02T12:32:09.236Z,49.77
2019-05-02T12:33:09.182Z,50.18
2019-05-02T12:34:09.154Z,49.12
2019-05-02T12:35:09.123Z,49.12
2019-05-02T12:36:09.100Z,48.64
2019-05-02T12:37:09.069Z,49.31
2019-05-02T12:38:09.049Z,48.08
2019-05-02T12:39:09.017Z,47.70
2019-05-02T12:40:08.990Z,47.70
2019-05-02T12:41:19.492Z,47.20
2019-05-02T12:42:09.214Z,47.85
2019-05-02T12:43:08.921Z,48.16
2019-05-02T12:44:08.886Z,48.16
2019-05-02T12:45:08.860Z,49.12
2019-05-02T12:46:08.837Z,48.16
2019-05-02T12:47:08.813Z,48.04
2019-05-02T12:48:08.781Z,49.69
2019-05-02T12:49:21.899Z,48.93
2019-05-02T12:50:08.718Z,49.22
2019-05-02T12:51:08.773Z,49.60
2019-05-02T12:52:08.666Z,48.35